EW3169 Weather Reports


time (UTC)temp
F
wind
direction
speed
knots
gust
knots
rain 1hr
in
rain 24hr
in
rain mn
in
humidity
%
barometer
mb
20211025035525 40 36 0.0 0.0 0.00 0.00 0.00 91 1018.6
20211025032456 40 36 0.0 0.0 0.00 0.00 0.00 90 1018.7
20211025025523 40 36 0.0 0.0 0.00 0.00 0.00 90 1019.0
20211025022506 40 36 0.0 0.0 0.00 0.00 0.00 90 1019.1
20211025015448 40 36 0.0 0.0 0.00 0.00 0.00 89 1019.2
20211025012451 39 36 0.0 0.0 0.00 0.00 0.00 89 1019.2
20211025005549 39 36 0.0 0.0 0.00 0.00 0.00 89 1018.9
20211025002545 39 36 0.0 0.0 0.00 0.00 0.00 87 1018.8
20211024235523 40 36 0.0 0.0 0.00 0.00 0.00 87 1018.3
20211024232509 40 36 0.0 0.0 0.00 0.00 0.00 86 1018.4
20211024225523 41 36 0.0 0.0 0.00 0.00 0.00 81 1018.2
20211024222504 44 36 0.0 0.0 0.00 0.00 0.00 77 1018.8
20211024215550 46 36 0.0 0.0 0.00 0.00 0.00 70 1018.4
20211024212452 50 107 0.9 0.0 0.00 0.00 0.00 56 1018.0
20211024205533 51 74 0.9 0.0 0.00 0.00 0.00 53 1017.8
20211024202543 54 62 0.9 0.0 0.00 0.00 0.00 43 1017.5
20211024195459 56 40 1.7 0.0 0.00 0.00 0.00 38 1017.2
20211024192512 55 277 1.7 0.0 0.00 0.00 0.00 43 1017.1
20211024182529 54 33 0.9 0.0 0.00 0.00 0.00 43 1017.3
20211024175533 53 91 0.9 0.0 0.00 0.00 0.00 45 1017.5
20211024172501 53 205 1.7 0.0 0.00 0.00 0.00 45 1017.9
20211024165453 51 60 0.9 0.0 0.00 0.00 0.00 47 1018.4
20211024162503 50 215 0.9 0.0 0.00 0.00 0.00 48 1018.9
20211024155545 50 165 1.7 0.0 0.00 0.00 0.00 50 1019.0
20211024152528 47 180 0.9 0.0 0.00 0.00 0.00 54 1019.2
20211024145525 45 205 0.9 0.0 0.00 0.00 0.00 62 1019.2
20211024142512 43 253 0.0 0.0 0.00 0.00 0.00 71 1019.3
20211024135543 39 213 0.9 0.0 0.00 0.00 0.00 80 1019.6
20211024125451 32 32 0.0 0.0 0.00 0.00 0.00 94 1020.0
20211024122457 27 32 0.0 0.0 0.00 0.00 0.00 97 1018.7
20211024115456 26 32 0.0 0.0 0.00 0.00 0.00 95 1018.6
20211024112451 26 32 0.0 0.0 0.00 0.00 0.00 96 1018.5
20211024105513 26 32 0.0 0.0 0.00 0.00 0.00 96 1019.0
20211024102547 27 32 0.0 0.0 0.00 0.00 0.00 95 1018.7
20211024095534 27 32 0.0 0.0 0.00 0.00 0.00 96 1018.2
20211024092542 27 32 0.0 0.0 0.00 0.00 0.00 95 1018.0
20211024085512 28 32 0.0 0.0 0.00 0.00 0.00 96 1017.7
20211024082541 28 32 0.0 0.0 0.00 0.00 0.00 95 1017.3
20211024075502 28 32 0.0 0.0 0.00 0.00 0.00 96 1017.1
20211024072541 28 38 0.0 0.0 0.00 0.00 0.00 95 1016.9
20211024065453 29 38 0.0 0.0 0.00 0.00 0.00 95 1016.8
20211024062528 29 38 0.0 0.0 0.00 0.00 0.00 95 1016.5
20211024055502 30 38 0.0 0.0 0.00 0.00 0.00 96 1016.0
20211024052501 30 38 0.0 0.0 0.00 0.00 0.00 95 1015.5
20211024045457 30 31 0.0 0.0 0.00 0.00 0.00 95 1015.3
20211024042457 31 32 0.0 0.0 0.00 0.00 0.00 94 1014.8